sensor_id;sensor_type;location;lat;lon;timestamp;P1;durP1;ratioP1;P2;durP2;ratioP2
19199;SDS011;9732;52.498;5.408;2022-08-18T00:02:02;12.63;;;6.75;;
19199;SDS011;9732;52.498;5.408;2022-08-18T00:04:31;13.38;;;6.68;;
19199;SDS011;9732;52.498;5.408;2022-08-18T00:07:00;12.32;;;7.40;;
19199;SDS011;9732;52.498;5.408;2022-08-18T00:09:27;15.95;;;6.78;;
19199;SDS011;9732;52.498;5.408;2022-08-18T00:11:55;13.98;;;6.95;;
19199;SDS011;9732;52.498;5.408;2022-08-18T00:14:21;15.65;;;7.00;;
19199;SDS011;9732;52.498;5.408;2022-08-18T00:16:49;13.25;;;7.15;;
19199;SDS011;9732;52.498;5.408;2022-08-18T00:19:17;9.40;;;6.90;;
19199;SDS011;9732;52.498;5.408;2022-08-18T00:21:44;16.40;;;6.80;;
19199;SDS011;9732;52.498;5.408;2022-08-18T00:24:10;14.38;;;6.82;;
19199;SDS011;9732;52.498;5.408;2022-08-18T00:26:37;14.27;;;7.18;;
19199;SDS011;9732;52.498;5.408;2022-08-18T00:29:05;10.90;;;6.13;;
19199;SDS011;9732;52.498;5.408;2022-08-18T00:31:32;8.98;;;6.22;;
19199;SDS011;9732;52.498;5.408;2022-08-18T00:33:59;13.40;;;6.43;;
19199;SDS011;9732;52.498;5.408;2022-08-18T00:36:26;13.27;;;6.53;;
19199;SDS011;9732;52.498;5.408;2022-08-18T00:38:53;17.23;;;6.63;;
19199;SDS011;9732;52.498;5.408;2022-08-18T00:41:19;11.73;;;6.43;;
19199;SDS011;9732;52.498;5.408;2022-08-18T00:43:48;8.40;;;5.97;;
19199;SDS011;9732;52.498;5.408;2022-08-18T00:46:19;15.27;;;6.30;;
19199;SDS011;9732;52.498;5.408;2022-08-18T00:48:48;12.45;;;6.32;;
19199;SDS011;9732;52.498;5.408;2022-08-18T00:51:16;13.10;;;6.47;;
19199;SDS011;9732;52.498;5.408;2022-08-18T00:53:49;13.93;;;6.38;;
19199;SDS011;9732;52.498;5.408;2022-08-18T00:56:23;8.90;;;5.60;;
19199;SDS011;9732;52.498;5.408;2022-08-18T00:58:56;13.45;;;6.28;;
19199;SDS011;9732;52.498;5.408;2022-08-18T01:01:28;13.63;;;6.30;;
19199;SDS011;9732;52.498;5.408;2022-08-18T01:03:57;8.63;;;4.93;;
19199;SDS011;9732;52.498;5.408;2022-08-18T01:06:29;15.48;;;6.00;;
19199;SDS011;9732;52.498;5.408;2022-08-18T01:09:02;11.95;;;6.00;;
19199;SDS011;9732;52.498;5.408;2022-08-18T01:11:28;11.73;;;6.07;;
19199;SDS011;9732;52.498;5.408;2022-08-18T01:13:57;10.35;;;5.80;;
19199;SDS011;9732;52.498;5.408;2022-08-18T01:16:23;11.32;;;5.50;;
19199;SDS011;9732;52.498;5.408;2022-08-18T01:19:09;8.95;;;5.50;;
19199;SDS011;9732;52.498;5.408;2022-08-18T01:21:55;15.48;;;6.03;;
19199;SDS011;9732;52.498;5.408;2022-08-18T01:24:32;10.70;;;5.63;;
19199;SDS011;9732;52.498;5.408;2022-08-18T01:27:27;9.02;;;5.55;;
19199;SDS011;9732;52.498;5.408;2022-08-18T01:29:56;9.48;;;5.30;;
19199;SDS011;9732;52.498;5.408;2022-08-18T01:32:29;8.07;;;5.45;;
19199;SDS011;9732;52.498;5.408;2022-08-18T01:34:56;7.03;;;5.55;;
19199;SDS011;9732;52.498;5.408;2022-08-18T01:37:23;18.13;;;6.25;;
19199;SDS011;9732;52.498;5.408;2022-08-18T01:39:51;9.82;;;5.57;;
19199;SDS011;9732;52.498;5.408;2022-08-18T01:42:18;9.80;;;5.57;;
19199;SDS011;9732;52.498;5.408;2022-08-18T01:44:45;15.02;;;5.95;;
19199;SDS011;9732;52.498;5.408;2022-08-18T01:47:15;13.43;;;6.10;;
19199;SDS011;9732;52.498;5.408;2022-08-18T01:49:42;11.85;;;5.30;;
19199;SDS011;9732;52.498;5.408;2022-08-18T01:52:10;12.43;;;5.40;;
19199;SDS011;9732;52.498;5.408;2022-08-18T01:54:43;13.77;;;5.47;;
19199;SDS011;9732;52.498;5.408;2022-08-18T01:57:11;12.75;;;5.32;;
19199;SDS011;9732;52.498;5.408;2022-08-18T01:59:39;14.82;;;5.95;;
19199;SDS011;9732;52.498;5.408;2022-08-18T02:02:06;10.93;;;5.68;;
19199;SDS011;9732;52.498;5.408;2022-08-18T02:04:34;9.63;;;5.78;;
19199;SDS011;9732;52.498;5.408;2022-08-18T02:07:02;8.30;;;5.38;;
19199;SDS011;9732;52.498;5.408;2022-08-18T02:09:30;10.52;;;5.32;;
19199;SDS011;9732;52.498;5.408;2022-08-18T02:11:57;8.70;;;5.18;;
19199;SDS011;9732;52.498;5.408;2022-08-18T02:14:25;11.00;;;5.00;;
19199;SDS011;9732;52.498;5.408;2022-08-18T02:16:54;9.45;;;5.35;;
19199;SDS011;9732;52.498;5.408;2022-08-18T02:19:21;14.93;;;5.57;;
19199;SDS011;9732;52.498;5.408;2022-08-18T02:21:49;8.18;;;5.13;;
19199;SDS011;9732;52.498;5.408;2022-08-18T02:24:17;10.20;;;6.03;;
19199;SDS011;9732;52.498;5.408;2022-08-18T02:26:44;9.65;;;5.28;;
19199;SDS011;9732;52.498;5.408;2022-08-18T02:29:10;8.98;;;5.50;;
19199;SDS011;9732;52.498;5.408;2022-08-18T02:31:39;10.70;;;5.55;;
19199;SDS011;9732;52.498;5.408;2022-08-18T02:34:06;14.30;;;6.15;;
19199;SDS011;9732;52.498;5.408;2022-08-18T02:36:32;9.75;;;5.38;;
19199;SDS011;9732;52.498;5.408;2022-08-18T02:38:59;9.80;;;5.70;;
19199;SDS011;9732;52.498;5.408;2022-08-18T02:41:26;9.27;;;5.32;;
19199;SDS011;9732;52.498;5.408;2022-08-18T02:43:53;8.18;;;5.10;;
19199;SDS011;9732;52.498;5.408;2022-08-18T02:46:20;10.55;;;5.68;;
19199;SDS011;9732;52.498;5.408;2022-08-18T02:48:48;10.07;;;5.38;;
19199;SDS011;9732;52.498;5.408;2022-08-18T02:51:15;9.90;;;5.22;;
19199;SDS011;9732;52.498;5.408;2022-08-18T02:53:43;8.25;;;5.10;;
19199;SDS011;9732;52.498;5.408;2022-08-18T02:56:12;9.77;;;5.28;;
19199;SDS011;9732;52.498;5.408;2022-08-18T02:58:52;14.07;;;5.15;;
19199;SDS011;9732;52.498;5.408;2022-08-18T03:01:20;9.93;;;5.13;;
19199;SDS011;9732;52.498;5.408;2022-08-18T03:03:51;9.80;;;4.80;;
19199;SDS011;9732;52.498;5.408;2022-08-18T03:06:19;7.80;;;5.20;;
19199;SDS011;9732;52.498;5.408;2022-08-18T03:08:46;9.98;;;4.57;;
19199;SDS011;9732;52.498;5.408;2022-08-18T03:11:14;6.70;;;4.70;;
19199;SDS011;9732;52.498;5.408;2022-08-18T03:13:41;7.80;;;4.88;;
19199;SDS011;9732;52.498;5.408;2022-08-18T03:16:08;13.85;;;5.00;;
19199;SDS011;9732;52.498;5.408;2022-08-18T03:18:35;7.55;;;4.40;;
19199;SDS011;9732;52.498;5.408;2022-08-18T03:21:05;6.43;;;3.97;;
19199;SDS011;9732;52.498;5.408;2022-08-18T03:23:32;9.05;;;4.97;;
19199;SDS011;9732;52.498;5.408;2022-08-18T03:25:59;8.70;;;4.40;;
19199;SDS011;9732;52.498;5.408;2022-08-18T03:28:25;6.80;;;4.55;;
19199;SDS011;9732;52.498;5.408;2022-08-18T03:30:52;10.50;;;4.53;;
19199;SDS011;9732;52.498;5.408;2022-08-18T03:33:19;8.00;;;4.55;;
19199;SDS011;9732;52.498;5.408;2022-08-18T03:35:46;7.55;;;4.75;;
19199;SDS011;9732;52.498;5.408;2022-08-18T03:38:14;6.70;;;5.13;;
19199;SDS011;9732;52.498;5.408;2022-08-18T03:40:41;6.13;;;4.65;;
19199;SDS011;9732;52.498;5.408;2022-08-18T03:43:08;6.50;;;4.82;;
19199;SDS011;9732;52.498;5.408;2022-08-18T03:45:34;6.25;;;4.57;;
19199;SDS011;9732;52.498;5.408;2022-08-18T03:48:01;6.40;;;4.30;;
19199;SDS011;9732;52.498;5.408;2022-08-18T03:50:29;8.00;;;4.03;;
19199;SDS011;9732;52.498;5.408;2022-08-18T03:52:56;5.45;;;4.60;;
19199;SDS011;9732;52.498;5.408;2022-08-18T03:55:25;5.55;;;4.00;;
19199;SDS011;9732;52.498;5.408;2022-08-18T03:57:56;4.85;;;4.18;;
19199;SDS011;9732;52.498;5.408;2022-08-18T04:00:23;8.23;;;4.63;;
19199;SDS011;9732;52.498;5.408;2022-08-18T04:02:51;8.38;;;4.53;;
19199;SDS011;9732;52.498;5.408;2022-08-18T04:05:18;8.82;;;4.95;;
19199;SDS011;9732;52.498;5.408;2022-08-18T04:07:44;10.65;;;4.80;;
19199;SDS011;9732;52.498;5.408;2022-08-18T04:10:11;5.82;;;4.88;;
19199;SDS011;9732;52.498;5.408;2022-08-18T04:12:40;8.32;;;4.85;;
19199;SDS011;9732;52.498;5.408;2022-08-18T04:15:07;10.88;;;4.90;;
19199;SDS011;9732;52.498;5.408;2022-08-18T04:17:34;7.35;;;5.20;;
19199;SDS011;9732;52.498;5.408;2022-08-18T04:20:02;7.45;;;4.63;;
19199;SDS011;9732;52.498;5.408;2022-08-18T04:22:29;10.30;;;5.00;;
19199;SDS011;9732;52.498;5.408;2022-08-18T04:24:58;12.52;;;4.78;;
19199;SDS011;9732;52.498;5.408;2022-08-18T04:27:25;9.70;;;5.20;;
19199;SDS011;9732;52.498;5.408;2022-08-18T04:29:55;7.97;;;4.70;;
19199;SDS011;9732;52.498;5.408;2022-08-18T04:32:22;5.85;;;4.72;;
19199;SDS011;9732;52.498;5.408;2022-08-18T04:34:49;8.85;;;5.38;;
19199;SDS011;9732;52.498;5.408;2022-08-18T04:37:16;12.10;;;5.38;;
19199;SDS011;9732;52.498;5.408;2022-08-18T04:39:43;8.70;;;5.28;;
19199;SDS011;9732;52.498;5.408;2022-08-18T04:42:10;10.80;;;5.13;;
19199;SDS011;9732;52.498;5.408;2022-08-18T04:44:37;10.90;;;5.75;;
19199;SDS011;9732;52.498;5.408;2022-08-18T04:47:05;9.23;;;5.22;;
19199;SDS011;9732;52.498;5.408;2022-08-18T04:49:33;9.52;;;5.43;;
19199;SDS011;9732;52.498;5.408;2022-08-18T04:52:00;10.00;;;5.22;;
19199;SDS011;9732;52.498;5.408;2022-08-18T04:54:44;7.30;;;4.85;;
19199;SDS011;9732;52.498;5.408;2022-08-18T04:57:11;11.13;;;5.13;;
19199;SDS011;9732;52.498;5.408;2022-08-18T04:59:41;9.65;;;4.80;;
19199;SDS011;9732;52.498;5.408;2022-08-18T05:02:11;6.53;;;5.10;;
19199;SDS011;9732;52.498;5.408;2022-08-18T05:04:39;9.90;;;4.93;;
19199;SDS011;9732;52.498;5.408;2022-08-18T05:07:11;7.55;;;5.32;;
19199;SDS011;9732;52.498;5.408;2022-08-18T05:09:39;9.57;;;4.45;;
19199;SDS011;9732;52.498;5.408;2022-08-18T05:12:07;10.45;;;5.68;;
19199;SDS011;9732;52.498;5.408;2022-08-18T05:14:38;11.10;;;5.45;;
19199;SDS011;9732;52.498;5.408;2022-08-18T05:17:05;9.65;;;5.47;;
19199;SDS011;9732;52.498;5.408;2022-08-18T05:19:33;38.50;;;20.40;;
19199;SDS011;9732;52.498;5.408;2022-08-18T05:22:01;12.98;;;6.85;;
19199;SDS011;9732;52.498;5.408;2022-08-18T05:24:29;8.00;;;4.65;;
19199;SDS011;9732;52.498;5.408;2022-08-18T05:26:57;8.73;;;4.88;;
19199;SDS011;9732;52.498;5.408;2022-08-18T05:29:24;5.78;;;4.57;;
19199;SDS011;9732;52.498;5.408;2022-08-18T05:31:51;8.13;;;4.70;;
19199;SDS011;9732;52.498;5.408;2022-08-18T05:34:19;8.15;;;4.95;;
19199;SDS011;9732;52.498;5.408;2022-08-18T05:36:54;9.07;;;5.35;;
19199;SDS011;9732;52.498;5.408;2022-08-18T05:39:29;8.55;;;4.80;;
19199;SDS011;9732;52.498;5.408;2022-08-18T05:42:04;8.70;;;4.50;;
19199;SDS011;9732;52.498;5.408;2022-08-18T05:44:34;6.68;;;4.63;;
19199;SDS011;9732;52.498;5.408;2022-08-18T05:47:05;12.23;;;4.90;;
19199;SDS011;9732;52.498;5.408;2022-08-18T05:49:36;7.35;;;4.88;;
19199;SDS011;9732;52.498;5.408;2022-08-18T05:52:05;5.40;;;4.43;;
19199;SDS011;9732;52.498;5.408;2022-08-18T05:54:38;7.65;;;4.30;;
19199;SDS011;9732;52.498;5.408;2022-08-18T05:57:26;8.05;;;4.70;;
19199;SDS011;9732;52.498;5.408;2022-08-18T05:59:56;10.43;;;5.20;;
19199;SDS011;9732;52.498;5.408;2022-08-18T06:02:31;9.38;;;5.03;;
19199;SDS011;9732;52.498;5.408;2022-08-18T06:05:01;8.88;;;4.70;;
19199;SDS011;9732;52.498;5.408;2022-08-18T06:07:33;8.20;;;4.65;;
19199;SDS011;9732;52.498;5.408;2022-08-18T06:10:05;8.23;;;4.70;;
19199;SDS011;9732;52.498;5.408;2022-08-18T06:12:34;7.50;;;4.32;;
19199;SDS011;9732;52.498;5.408;2022-08-18T06:15:04;7.07;;;4.88;;
19199;SDS011;9732;52.498;5.408;2022-08-18T06:17:47;10.35;;;4.40;;
19199;SDS011;9732;52.498;5.408;2022-08-18T06:20:27;7.20;;;4.15;;
19199;SDS011;9732;52.498;5.408;2022-08-18T06:23:02;6.03;;;4.20;;
19199;SDS011;9732;52.498;5.408;2022-08-18T06:25:45;6.95;;;4.30;;
19199;SDS011;9732;52.498;5.408;2022-08-18T06:28:22;8.07;;;4.78;;
19199;SDS011;9732;52.498;5.408;2022-08-18T06:30:54;7.78;;;4.45;;
19199;SDS011;9732;52.498;5.408;2022-08-18T06:33:36;8.90;;;4.38;;
19199;SDS011;9732;52.498;5.408;2022-08-18T06:36:15;8.35;;;4.50;;
19199;SDS011;9732;52.498;5.408;2022-08-18T06:38:52;7.40;;;4.20;;
19199;SDS011;9732;52.498;5.408;2022-08-18T06:41:32;8.90;;;5.75;;
19199;SDS011;9732;52.498;5.408;2022-08-18T06:44:03;11.52;;;5.50;;
19199;SDS011;9732;52.498;5.408;2022-08-18T06:46:35;10.82;;;5.70;;
19199;SDS011;9732;52.498;5.408;2022-08-18T06:49:07;7.90;;;5.55;;
19199;SDS011;9732;52.498;5.408;2022-08-18T06:51:35;8.40;;;5.32;;
19199;SDS011;9732;52.498;5.408;2022-08-18T06:54:04;10.00;;;5.95;;
19199;SDS011;9732;52.498;5.408;2022-08-18T06:56:34;7.35;;;5.40;;
19199;SDS011;9732;52.498;5.408;2022-08-18T06:59:19;10.70;;;5.50;;
19199;SDS011;9732;52.498;5.408;2022-08-18T07:01:50;11.80;;;5.60;;
19199;SDS011;9732;52.498;5.408;2022-08-18T07:07:17;6.28;;;5.45;;
19199;SDS011;9732;52.498;5.408;2022-08-18T07:09:55;7.88;;;5.47;;
19199;SDS011;9732;52.498;5.408;2022-08-18T07:12:23;7.88;;;5.63;;
19199;SDS011;9732;52.498;5.408;2022-08-18T07:14:52;6.45;;;5.05;;
19199;SDS011;9732;52.498;5.408;2022-08-18T07:17:21;18.95;;;9.80;;
19199;SDS011;9732;52.498;5.408;2022-08-18T07:19:57;10.13;;;5.97;;
19199;SDS011;9732;52.498;5.408;2022-08-18T07:22:26;8.50;;;5.75;;
19199;SDS011;9732;52.498;5.408;2022-08-18T07:24:54;7.72;;;5.68;;
19199;SDS011;9732;52.498;5.408;2022-08-18T07:27:42;10.27;;;6.05;;
19199;SDS011;9732;52.498;5.408;2022-08-18T07:30:14;15.10;;;10.48;;
19199;SDS011;9732;52.498;5.408;2022-08-18T07:32:53;9.55;;;5.82;;
19199;SDS011;9732;52.498;5.408;2022-08-18T07:35:27;9.75;;;5.95;;
19199;SDS011;9732;52.498;5.408;2022-08-18T07:38:00;8.55;;;5.32;;
19199;SDS011;9732;52.498;5.408;2022-08-18T07:40:32;8.82;;;5.18;;
19199;SDS011;9732;52.498;5.408;2022-08-18T07:43:04;9.60;;;5.32;;
19199;SDS011;9732;52.498;5.408;2022-08-18T07:45:36;10.35;;;5.47;;
19199;SDS011;9732;52.498;5.408;2022-08-18T07:48:09;7.78;;;5.10;;
19199;SDS011;9732;52.498;5.408;2022-08-18T07:50:39;8.80;;;5.63;;
19199;SDS011;9732;52.498;5.408;2022-08-18T07:53:20;9.00;;;6.25;;
19199;SDS011;9732;52.498;5.408;2022-08-18T07:56:02;7.53;;;5.57;;
19199;SDS011;9732;52.498;5.408;2022-08-18T07:58:33;7.18;;;4.65;;
19199;SDS011;9732;52.498;5.408;2022-08-18T08:01:07;8.77;;;4.35;;
19199;SDS011;9732;52.498;5.408;2022-08-18T08:03:42;6.05;;;4.25;;
19199;SDS011;9732;52.498;5.408;2022-08-18T08:06:17;5.55;;;4.70;;
19199;SDS011;9732;52.498;5.408;2022-08-18T08:08:49;4.85;;;4.35;;
19199;SDS011;9732;52.498;5.408;2022-08-18T08:11:30;8.55;;;4.78;;
19199;SDS011;9732;52.498;5.408;2022-08-18T08:14:12;7.30;;;4.55;;
19199;SDS011;9732;52.498;5.408;2022-08-18T08:16:59;5.20;;;4.70;;
19199;SDS011;9732;52.498;5.408;2022-08-18T08:19:51;7.72;;;4.90;;
19199;SDS011;9732;52.498;5.408;2022-08-18T08:22:28;8.63;;;5.03;;
19199;SDS011;9732;52.498;5.408;2022-08-18T08:25:02;5.68;;;4.22;;
19199;SDS011;9732;52.498;5.408;2022-08-18T08:27:38;5.25;;;4.28;;
19199;SDS011;9732;52.498;5.408;2022-08-18T08:30:16;9.63;;;4.30;;
19199;SDS011;9732;52.498;5.408;2022-08-18T08:32:48;5.32;;;4.53;;
19199;SDS011;9732;52.498;5.408;2022-08-18T08:35:32;10.95;;;4.80;;
19199;SDS011;9732;52.498;5.408;2022-08-18T08:38:03;13.25;;;4.35;;
19199;SDS011;9732;52.498;5.408;2022-08-18T08:40:36;6.43;;;3.92;;
19199;SDS011;9732;52.498;5.408;2022-08-18T08:43:14;7.45;;;4.10;;
19199;SDS011;9732;52.498;5.408;2022-08-18T08:45:44;6.32;;;3.70;;
19199;SDS011;9732;52.498;5.408;2022-08-18T08:48:15;6.93;;;3.80;;
19199;SDS011;9732;52.498;5.408;2022-08-18T08:50:45;10.30;;;6.30;;
19199;SDS011;9732;52.498;5.408;2022-08-18T08:53:17;6.45;;;3.70;;
19199;SDS011;9732;52.498;5.408;2022-08-18T08:55:50;5.28;;;3.08;;
19199;SDS011;9732;52.498;5.408;2022-08-18T08:58:23;6.85;;;3.90;;
19199;SDS011;9732;52.498;5.408;2022-08-18T09:00:54;6.82;;;3.40;;
19199;SDS011;9732;52.498;5.408;2022-08-18T09:03:25;5.93;;;3.60;;
19199;SDS011;9732;52.498;5.408;2022-08-18T09:06:02;6.55;;;3.85;;
19199;SDS011;9732;52.498;5.408;2022-08-18T09:08:44;3.88;;;3.33;;
19199;SDS011;9732;52.498;5.408;2022-08-18T09:11:27;17.10;;;4.22;;
19199;SDS011;9732;52.498;5.408;2022-08-18T09:14:28;8.25;;;3.88;;
19199;SDS011;9732;52.498;5.408;2022-08-18T09:17:22;8.50;;;4.07;;
19199;SDS011;9732;52.498;5.408;2022-08-18T09:20:10;4.55;;;3.05;;
19199;SDS011;9732;52.498;5.408;2022-08-18T09:22:50;5.75;;;3.30;;
19199;SDS011;9732;52.498;5.408;2022-08-18T09:25:29;6.53;;;3.20;;
19199;SDS011;9732;52.498;5.408;2022-08-18T09:28:07;5.28;;;3.33;;
19199;SDS011;9732;52.498;5.408;2022-08-18T09:30:42;4.05;;;2.95;;
19199;SDS011;9732;52.498;5.408;2022-08-18T09:33:14;4.97;;;2.90;;
19199;SDS011;9732;52.498;5.408;2022-08-18T09:35:48;6.25;;;2.85;;
19199;SDS011;9732;52.498;5.408;2022-08-18T09:38:48;5.93;;;2.70;;
19199;SDS011;9732;52.498;5.408;2022-08-18T09:41:39;5.35;;;2.58;;
19199;SDS011;9732;52.498;5.408;2022-08-18T09:44:14;4.35;;;2.53;;
19199;SDS011;9732;52.498;5.408;2022-08-18T09:50:34;5.10;;;2.58;;
19199;SDS011;9732;52.498;5.408;2022-08-18T09:53:34;5.57;;;2.63;;
19199;SDS011;9732;52.498;5.408;2022-08-18T09:56:17;4.00;;;2.10;;
19199;SDS011;9732;52.498;5.408;2022-08-18T10:05:36;3.03;;;2.65;;
19199;SDS011;9732;52.498;5.408;2022-08-18T10:10:58;3.83;;;1.83;;
19199;SDS011;9732;52.498;5.408;2022-08-18T10:13:34;1.95;;;1.42;;
19199;SDS011;9732;52.498;5.408;2022-08-18T10:16:09;2.58;;;1.73;;
19199;SDS011;9732;52.498;5.408;2022-08-18T10:18:59;2.75;;;1.63;;
19199;SDS011;9732;52.498;5.408;2022-08-18T10:24:29;3.60;;;1.40;;
19199;SDS011;9732;52.498;5.408;2022-08-18T10:26:59;1.92;;;1.40;;
19199;SDS011;9732;52.498;5.408;2022-08-18T10:38:20;3.60;;;1.42;;
19199;SDS011;9732;52.498;5.408;2022-08-18T10:40:52;4.38;;;1.40;;
19199;SDS011;9732;52.498;5.408;2022-08-18T10:43:25;1.92;;;1.20;;
19199;SDS011;9732;52.498;5.408;2022-08-18T10:45:57;3.22;;;1.10;;
19199;SDS011;9732;52.498;5.408;2022-08-18T10:48:25;4.55;;;1.63;;
19199;SDS011;9732;52.498;5.408;2022-08-18T10:50:55;1.95;;;0.90;;
19199;SDS011;9732;52.498;5.408;2022-08-18T10:53:29;2.17;;;1.15;;
19199;SDS011;9732;52.498;5.408;2022-08-18T10:56:03;1.23;;;0.80;;
19199;SDS011;9732;52.498;5.408;2022-08-18T10:58:38;3.10;;;1.20;;
19199;SDS011;9732;52.498;5.408;2022-08-18T11:01:23;2.45;;;1.00;;
19199;SDS011;9732;52.498;5.408;2022-08-18T11:04:03;1.75;;;1.02;;
19199;SDS011;9732;52.498;5.408;2022-08-18T11:06:37;3.70;;;1.05;;
19199;SDS011;9732;52.498;5.408;2022-08-18T11:09:07;3.63;;;1.27;;
19199;SDS011;9732;52.498;5.408;2022-08-18T11:11:36;1.60;;;1.20;;
19199;SDS011;9732;52.498;5.408;2022-08-18T11:14:09;1.77;;;1.15;;
19199;SDS011;9732;52.498;5.408;2022-08-18T11:16:59;1.67;;;0.90;;
19199;SDS011;9732;52.498;5.408;2022-08-18T11:19:34;2.63;;;1.05;;
19199;SDS011;9732;52.498;5.408;2022-08-18T11:22:03;2.50;;;1.20;;
19199;SDS011;9732;52.498;5.408;2022-08-18T11:24:32;1.95;;;0.90;;
19199;SDS011;9732;52.498;5.408;2022-08-18T11:27:00;4.32;;;1.25;;
19199;SDS011;9732;52.498;5.408;2022-08-18T11:29:30;3.33;;;1.63;;
19199;SDS011;9732;52.498;5.408;2022-08-18T11:32:00;3.08;;;1.83;;
19199;SDS011;9732;52.498;5.408;2022-08-18T11:34:34;3.42;;;1.52;;
19199;SDS011;9732;52.498;5.408;2022-08-18T11:37:04;2.78;;;1.48;;
19199;SDS011;9732;52.498;5.408;2022-08-18T11:39:41;1.83;;;1.48;;
19199;SDS011;9732;52.498;5.408;2022-08-18T11:42:14;6.13;;;2.13;;
19199;SDS011;9732;52.498;5.408;2022-08-18T11:44:42;3.15;;;1.60;;
19199;SDS011;9732;52.498;5.408;2022-08-18T11:47:12;4.05;;;1.80;;
19199;SDS011;9732;52.498;5.408;2022-08-18T11:49:48;5.30;;;1.40;;
19199;SDS011;9732;52.498;5.408;2022-08-18T11:52:19;1.63;;;1.10;;
19199;SDS011;9732;52.498;5.408;2022-08-18T11:54:51;4.40;;;1.30;;
19199;SDS011;9732;52.498;5.408;2022-08-18T11:57:28;3.75;;;1.10;;
19199;SDS011;9732;52.498;5.408;2022-08-18T12:00:13;2.83;;;1.17;;
19199;SDS011;9732;52.498;5.408;2022-08-18T12:03:07;3.10;;;1.30;;
19199;SDS011;9732;52.498;5.408;2022-08-18T12:05:40;1.33;;;1.13;;
19199;SDS011;9732;52.498;5.408;2022-08-18T12:08:17;3.30;;;1.30;;
19199;SDS011;9732;52.498;5.408;2022-08-18T12:10:59;1.25;;;1.15;;
19199;SDS011;9732;52.498;5.408;2022-08-18T12:13:28;3.00;;;1.20;;
19199;SDS011;9732;52.498;5.408;2022-08-18T12:16:09;1.35;;;1.10;;
19199;SDS011;9732;52.498;5.408;2022-08-18T12:18:38;4.50;;;1.30;;
19199;SDS011;9732;52.498;5.408;2022-08-18T12:21:05;1.60;;;1.30;;
19199;SDS011;9732;52.498;5.408;2022-08-18T12:23:34;1.25;;;1.15;;
19199;SDS011;9732;52.498;5.408;2022-08-18T12:26:03;6.05;;;1.52;;
19199;SDS011;9732;52.498;5.408;2022-08-18T12:28:30;4.40;;;1.60;;
19199;SDS011;9732;52.498;5.408;2022-08-18T12:30:56;2.17;;;1.13;;
19199;SDS011;9732;52.498;5.408;2022-08-18T12:33:23;2.22;;;1.50;;
19199;SDS011;9732;52.498;5.408;2022-08-18T12:35:50;1.77;;;1.33;;
19199;SDS011;9732;52.498;5.408;2022-08-18T12:38:17;2.05;;;1.02;;
19199;SDS011;9732;52.498;5.408;2022-08-18T12:40:43;1.70;;;1.00;;
19199;SDS011;9732;52.498;5.408;2022-08-18T12:43:11;2.10;;;1.10;;
19199;SDS011;9732;52.498;5.408;2022-08-18T12:45:38;2.03;;;1.50;;
19199;SDS011;9732;52.498;5.408;2022-08-18T12:48:06;2.03;;;1.30;;
19199;SDS011;9732;52.498;5.408;2022-08-18T12:50:33;2.85;;;1.30;;
19199;SDS011;9732;52.498;5.408;2022-08-18T12:53:01;1.67;;;1.20;;
19199;SDS011;9732;52.498;5.408;2022-08-18T12:55:28;2.17;;;1.27;;
19199;SDS011;9732;52.498;5.408;2022-08-18T12:57:59;4.57;;;1.70;;
19199;SDS011;9732;52.498;5.408;2022-08-18T13:00:29;3.45;;;1.63;;
19199;SDS011;9732;52.498;5.408;2022-08-18T13:02:56;4.43;;;1.55;;
19199;SDS011;9732;52.498;5.408;2022-08-18T13:05:23;3.95;;;2.05;;
19199;SDS011;9732;52.498;5.408;2022-08-18T13:07:50;1.88;;;1.52;;
19199;SDS011;9732;52.498;5.408;2022-08-18T13:10:17;2.42;;;1.38;;
19199;SDS011;9732;52.498;5.408;2022-08-18T13:12:43;1.67;;;1.50;;
19199;SDS011;9732;52.498;5.408;2022-08-18T13:15:10;3.47;;;1.58;;
19199;SDS011;9732;52.498;5.408;2022-08-18T13:17:38;1.58;;;1.48;;
19199;SDS011;9732;52.498;5.408;2022-08-18T13:20:06;3.25;;;1.70;;
19199;SDS011;9732;52.498;5.408;2022-08-18T13:22:35;11.02;;;2.00;;
19199;SDS011;9732;52.498;5.408;2022-08-18T13:25:05;6.22;;;1.52;;
19199;SDS011;9732;52.498;5.408;2022-08-18T13:27:34;8.32;;;1.55;;
19199;SDS011;9732;52.498;5.408;2022-08-18T13:30:02;3.70;;;1.40;;
19199;SDS011;9732;52.498;5.408;2022-08-18T13:32:30;2.67;;;1.65;;
19199;SDS011;9732;52.498;5.408;2022-08-18T13:34:59;3.72;;;1.75;;
19199;SDS011;9732;52.498;5.408;2022-08-18T13:37:26;4.88;;;2.25;;
19199;SDS011;9732;52.498;5.408;2022-08-18T13:39:57;2.47;;;1.67;;
19199;SDS011;9732;52.498;5.408;2022-08-18T13:42:24;1.73;;;1.48;;
19199;SDS011;9732;52.498;5.408;2022-08-18T13:44:53;4.10;;;1.63;;
19199;SDS011;9732;52.498;5.408;2022-08-18T13:47:21;4.28;;;1.70;;
19199;SDS011;9732;52.498;5.408;2022-08-18T13:49:48;1.85;;;1.50;;
19199;SDS011;9732;52.498;5.408;2022-08-18T13:52:17;3.88;;;1.73;;
19199;SDS011;9732;52.498;5.408;2022-08-18T13:54:43;4.20;;;1.50;;
19199;SDS011;9732;52.498;5.408;2022-08-18T13:57:10;3.88;;;1.60;;
19199;SDS011;9732;52.498;5.408;2022-08-18T13:59:37;2.42;;;1.55;;
19199;SDS011;9732;52.498;5.408;2022-08-18T14:02:06;3.08;;;1.80;;
19199;SDS011;9732;52.498;5.408;2022-08-18T14:04:35;3.97;;;1.83;;
19199;SDS011;9732;52.498;5.408;2022-08-18T14:07:03;2.67;;;1.40;;
19199;SDS011;9732;52.498;5.408;2022-08-18T14:09:32;2.25;;;1.60;;
19199;SDS011;9732;52.498;5.408;2022-08-18T14:12:00;5.53;;;1.90;;
19199;SDS011;9732;52.498;5.408;2022-08-18T14:14:28;2.20;;;1.83;;
19199;SDS011;9732;52.498;5.408;2022-08-18T14:16:55;3.45;;;1.58;;
19199;SDS011;9732;52.498;5.408;2022-08-18T14:19:21;4.28;;;1.83;;
19199;SDS011;9732;52.498;5.408;2022-08-18T14:22:06;3.05;;;1.60;;
19199;SDS011;9732;52.498;5.408;2022-08-18T14:24:51;5.05;;;1.58;;
19199;SDS011;9732;52.498;5.408;2022-08-18T14:27:36;3.35;;;1.58;;
19199;SDS011;9732;52.498;5.408;2022-08-18T14:30:05;2.55;;;1.60;;
19199;SDS011;9732;52.498;5.408;2022-08-18T14:32:33;3.65;;;1.83;;
19199;SDS011;9732;52.498;5.408;2022-08-18T14:35:01;4.40;;;2.10;;
19199;SDS011;9732;52.498;5.408;2022-08-18T14:37:29;4.30;;;1.70;;
19199;SDS011;9732;52.498;5.408;2022-08-18T14:39:57;3.58;;;1.85;;
19199;SDS011;9732;52.498;5.408;2022-08-18T14:42:24;3.00;;;1.98;;
19199;SDS011;9732;52.498;5.408;2022-08-18T14:44:51;2.25;;;1.92;;
19199;SDS011;9732;52.498;5.408;2022-08-18T14:47:19;3.28;;;1.75;;
19199;SDS011;9732;52.498;5.408;2022-08-18T14:49:46;2.90;;;1.88;;
19199;SDS011;9732;52.498;5.408;2022-08-18T14:52:13;6.85;;;1.83;;
19199;SDS011;9732;52.498;5.408;2022-08-18T14:54:40;2.58;;;1.75;;
19199;SDS011;9732;52.498;5.408;2022-08-18T14:57:08;2.25;;;1.60;;
19199;SDS011;9732;52.498;5.408;2022-08-18T14:59:35;3.25;;;1.75;;
19199;SDS011;9732;52.498;5.408;2022-08-18T15:02:02;4.35;;;1.90;;
19199;SDS011;9732;52.498;5.408;2022-08-18T15:04:29;2.97;;;1.85;;
19199;SDS011;9732;52.498;5.408;2022-08-18T15:06:56;1.70;;;1.60;;
19199;SDS011;9732;52.498;5.408;2022-08-18T15:09:23;6.10;;;1.80;;
19199;SDS011;9732;52.498;5.408;2022-08-18T15:11:50;4.55;;;1.88;;
19199;SDS011;9732;52.498;5.408;2022-08-18T15:14:21;7.28;;;1.90;;
19199;SDS011;9732;52.498;5.408;2022-08-18T15:16:47;6.63;;;1.80;;
19199;SDS011;9732;52.498;5.408;2022-08-18T15:19:14;3.53;;;1.50;;
19199;SDS011;9732;52.498;5.408;2022-08-18T15:21:41;2.80;;;1.85;;
19199;SDS011;9732;52.498;5.408;2022-08-18T15:24:25;4.97;;;1.95;;
19199;SDS011;9732;52.498;5.408;2022-08-18T15:27:09;3.33;;;1.73;;
19199;SDS011;9732;52.498;5.408;2022-08-18T15:29:37;3.22;;;1.77;;
19199;SDS011;9732;52.498;5.408;2022-08-18T15:32:04;1.83;;;1.67;;
19199;SDS011;9732;52.498;5.408;2022-08-18T15:34:33;6.40;;;1.98;;
19199;SDS011;9732;52.498;5.408;2022-08-18T15:37:00;5.75;;;2.22;;
19199;SDS011;9732;52.498;5.408;2022-08-18T15:39:27;3.42;;;1.90;;
19199;SDS011;9732;52.498;5.408;2022-08-18T15:41:54;5.88;;;2.50;;
19199;SDS011;9732;52.498;5.408;2022-08-18T15:44:22;3.45;;;2.25;;
19199;SDS011;9732;52.498;5.408;2022-08-18T15:46:50;3.58;;;2.22;;
19199;SDS011;9732;52.498;5.408;2022-08-18T15:49:17;3.92;;;2.95;;
19199;SDS011;9732;52.498;5.408;2022-08-18T15:51:44;5.45;;;2.33;;